createdAt,value
2018-09-28T00:02:53.926Z,12.50
2018-09-28T00:05:57.076Z,12.40
2018-09-28T00:09:00.215Z,12.30
2018-09-28T00:12:03.331Z,12.30
2018-09-28T00:15:06.522Z,12.30
2018-09-28T00:18:09.637Z,12.20
2018-09-28T00:21:12.845Z,12.30
2018-09-28T00:24:15.968Z,12.40
2018-09-28T00:27:19.242Z,12.40
2018-09-28T00:30:22.379Z,12.50
2018-09-28T00:33:25.507Z,12.50
2018-09-28T00:36:28.643Z,12.50
2018-09-28T00:39:31.783Z,12.50
2018-09-28T00:42:34.902Z,12.50
2018-09-28T00:45:38.034Z,12.50
2018-09-28T00:48:41.161Z,12.40
2018-09-28T00:51:44.332Z,12.40
2018-09-28T00:54:47.463Z,12.40
2018-09-28T00:57:50.607Z,12.30
2018-09-28T01:00:53.702Z,12.30
2018-09-28T01:03:56.814Z,12.20
2018-09-28T01:06:59.915Z,12.20
2018-09-28T01:10:03.054Z,12.20
2018-09-28T01:13:06.211Z,12.10
2018-09-28T01:16:09.343Z,12.00
2018-09-28T01:19:12.491Z,11.90
2018-09-28T01:22:15.630Z,11.90
2018-09-28T01:25:18.739Z,11.90
2018-09-28T01:28:21.862Z,11.80
2018-09-28T01:31:24.970Z,11.90
2018-09-28T01:34:28.105Z,11.90
2018-09-28T01:37:31.238Z,11.80
2018-09-28T01:40:34.381Z,11.60
2018-09-28T01:43:37.522Z,11.70
2018-09-28T01:46:40.638Z,11.70
2018-09-28T01:49:43.757Z,11.70
2018-09-28T01:52:46.877Z,11.60
2018-09-28T01:55:50.002Z,11.40
2018-09-28T01:58:53.097Z,11.30
2018-09-28T02:01:56.277Z,11.30
2018-09-28T02:04:59.385Z,11.30
2018-09-28T02:08:02.546Z,11.30
2018-09-28T02:11:05.773Z,11.20
2018-09-28T02:14:08.891Z,11.20
2018-09-28T02:17:12.031Z,11.20
2018-09-28T02:20:15.125Z,11.20
2018-09-28T02:23:18.249Z,11.30
2018-09-28T02:26:21.357Z,11.30
2018-09-28T02:29:24.521Z,11.40
2018-09-28T02:32:27.666Z,11.40
2018-09-28T02:35:30.792Z,11.40
2018-09-28T02:38:33.902Z,11.40
2018-09-28T02:41:37.036Z,11.30
2018-09-28T02:44:40.267Z,11.30
2018-09-28T02:47:43.390Z,11.20
2018-09-28T02:50:46.514Z,11.10
2018-09-28T02:53:49.644Z,11.00
2018-09-28T02:56:52.825Z,11.00
2018-09-28T02:59:55.866Z,10.90
2018-09-28T03:02:58.999Z,10.90
2018-09-28T03:06:02.149Z,10.90
2018-09-28T03:09:07.224Z,10.80
2018-09-28T03:12:10.320Z,10.80
2018-09-28T03:15:13.453Z,10.70
2018-09-28T03:18:16.574Z,10.70
2018-09-28T03:21:19.714Z,10.60
2018-09-28T03:24:22.823Z,10.60
2018-09-28T03:27:25.965Z,10.50
2018-09-28T03:30:29.095Z,10.50
2018-09-28T03:33:32.286Z,10.40
2018-09-28T03:36:35.415Z,10.50
2018-09-28T03:39:38.622Z,10.40
2018-09-28T03:42:41.770Z,10.30
2018-09-28T03:45:44.933Z,10.30
2018-09-28T03:48:48.051Z,10.20
2018-09-28T03:51:51.167Z,10.20
2018-09-28T03:54:54.298Z,10.10
2018-09-28T03:57:57.447Z,10.10
2018-09-28T04:01:00.603Z,10.10
2018-09-28T04:04:03.717Z,10.10
2018-09-28T04:07:06.930Z,10.20
2018-09-28T04:10:10.034Z,10.10
2018-09-28T04:13:13.214Z,10.10
2018-09-28T04:16:16.306Z,10.10
2018-09-28T04:19:19.423Z,10.00
2018-09-28T04:22:22.554Z,10.20
2018-09-28T04:25:25.698Z,10.10
2018-09-28T04:28:28.857Z,10.00
2018-09-28T04:31:31.962Z,9.90
2018-09-28T04:34:35.074Z,9.80
2018-09-28T04:37:38.191Z,9.70
2018-09-28T04:40:41.317Z,9.60
2018-09-28T04:43:44.431Z,9.60
2018-09-28T04:46:47.611Z,9.60
2018-09-28T04:49:50.697Z,9.70
2018-09-28T04:52:53.888Z,9.70
2018-09-28T04:55:57.001Z,9.80
2018-09-28T04:59:00.133Z,9.90
2018-09-28T05:02:03.230Z,9.80
2018-09-28T05:05:06.511Z,9.80
2018-09-28T05:11:19.119Z,9.50
2018-09-28T05:14:22.254Z,9.50
2018-09-28T05:17:25.354Z,9.50
2018-09-28T05:20:28.549Z,9.70
2018-09-28T05:23:31.649Z,9.80
2018-09-28T05:26:34.766Z,9.80
2018-09-28T05:29:37.894Z,9.90
2018-09-28T05:32:41.267Z,9.90
2018-09-28T05:35:44.125Z,10.00
2018-09-28T05:38:47.247Z,10.10
2018-09-28T05:41:50.402Z,10.30
2018-09-28T05:44:53.518Z,10.40
2018-09-28T05:47:56.693Z,10.60
2018-09-28T05:50:59.813Z,10.70
2018-09-28T05:54:02.966Z,10.80
2018-09-28T05:57:06.193Z,10.70
2018-09-28T06:01:17.505Z,10.80
2018-09-28T06:05:23.675Z,10.90
2018-09-28T06:08:26.775Z,11.00
2018-09-28T06:11:29.935Z,11.00
2018-09-28T06:14:33.033Z,11.00
2018-09-28T06:17:36.166Z,11.00
2018-09-28T06:20:39.281Z,11.10
2018-09-28T06:23:42.414Z,11.10
2018-09-28T06:26:45.557Z,11.10
2018-09-28T06:29:48.731Z,11.10
2018-09-28T06:32:51.877Z,11.10
2018-09-28T06:35:55.047Z,11.10
2018-09-28T06:38:58.142Z,11.10
2018-09-28T06:42:01.371Z,11.10
2018-09-28T06:45:04.433Z,11.10
2018-09-28T06:48:07.593Z,11.20
2018-09-28T06:51:10.722Z,11.30
2018-09-28T06:54:13.870Z,11.30
2018-09-28T06:57:16.922Z,11.30
2018-09-28T07:00:20.124Z,11.40
2018-09-28T07:03:23.174Z,11.40
2018-09-28T07:06:26.341Z,11.40
2018-09-28T07:09:30.363Z,11.40
2018-09-28T07:12:33.545Z,11.40
2018-09-28T07:15:36.665Z,11.40
2018-09-28T07:18:39.799Z,11.50
2018-09-28T07:21:44.018Z,11.50
2018-09-28T07:24:47.247Z,11.50
2018-09-28T07:27:50.281Z,11.40
2018-09-28T07:30:53.423Z,11.40
2018-09-28T07:33:56.541Z,11.40
2018-09-28T07:36:59.743Z,11.40
2018-09-28T07:40:02.835Z,11.40
2018-09-28T07:43:06.030Z,11.40
2018-09-28T07:46:09.194Z,11.40
2018-09-28T07:49:12.364Z,11.40
2018-09-28T07:52:15.455Z,11.40
2018-09-28T07:55:18.606Z,11.30
2018-09-28T07:58:21.721Z,11.20
2018-09-28T08:01:24.905Z,11.10
2018-09-28T08:04:28.057Z,11.10
2018-09-28T08:07:31.233Z,11.00
2018-09-28T08:10:34.401Z,11.00
2018-09-28T08:13:37.510Z,11.00
2018-09-28T08:16:40.673Z,10.90
2018-09-28T08:19:43.836Z,10.90
2018-09-28T08:22:46.943Z,10.80
2018-09-28T08:25:50.110Z,10.70
2018-09-28T08:28:53.233Z,10.60
2018-09-28T08:31:56.374Z,10.50
2018-09-28T08:34:59.522Z,10.60
2018-09-28T08:38:02.633Z,10.70
2018-09-28T08:41:05.933Z,10.70
2018-09-28T08:44:09.046Z,10.80
2018-09-28T08:47:12.426Z,10.90
2018-09-28T08:50:15.521Z,11.00
2018-09-28T08:53:18.663Z,11.00
2018-09-28T08:56:21.797Z,11.10
2018-09-28T08:59:25.118Z,11.20
2018-09-28T09:02:28.292Z,11.40
2018-09-28T09:05:31.429Z,11.70
2018-09-28T09:08:34.599Z,11.90
2018-09-28T09:11:37.738Z,12.00
2018-09-28T09:14:40.890Z,12.00
2018-09-28T09:17:43.992Z,11.90
2018-09-28T09:20:47.130Z,11.90
2018-09-28T09:23:50.275Z,11.90
2018-09-28T09:26:53.378Z,11.80
2018-09-28T09:29:56.484Z,11.80
2018-09-28T09:32:59.609Z,11.90
2018-09-28T09:36:02.765Z,11.90
2018-09-28T09:39:08.002Z,11.90
2018-09-28T09:42:11.379Z,11.90
2018-09-28T09:45:14.505Z,12.00
2018-09-28T09:48:17.668Z,12.10
2018-09-28T09:51:20.831Z,12.10
2018-09-28T09:54:23.957Z,12.10
2018-09-28T09:57:27.122Z,12.30
2018-09-28T10:00:35.822Z,12.50
2018-09-28T10:03:44.519Z,12.70
2018-09-28T10:06:47.621Z,12.90
2018-09-28T10:09:50.764Z,12.90
2018-09-28T10:12:53.908Z,13.00
2018-09-28T10:15:57.053Z,13.10
2018-09-28T10:19:00.170Z,13.40
2018-09-28T10:22:05.763Z,13.40
2018-09-28T10:25:08.939Z,13.70
2018-09-28T10:28:12.092Z,14.10
2018-09-28T10:31:16.218Z,14.40
2018-09-28T10:34:19.374Z,14.50
2018-09-28T10:40:43.161Z,14.90
2018-09-28T10:43:46.154Z,14.90
2018-09-28T10:46:49.345Z,14.60
2018-09-28T10:49:52.839Z,14.40
2018-09-28T10:52:56.712Z,14.40
2018-09-28T10:55:59.787Z,14.20
2018-09-28T10:59:02.915Z,14.20
2018-09-28T11:02:06.187Z,14.20
2018-09-28T11:05:09.331Z,14.20
2018-09-28T11:08:12.973Z,14.20
2018-09-28T11:11:16.823Z,14.10
2018-09-28T11:14:19.989Z,13.90
2018-09-28T11:17:23.117Z,13.90
2018-09-28T11:20:26.210Z,13.80
2018-09-28T11:23:29.506Z,13.80
2018-09-28T11:26:32.621Z,13.90
2018-09-28T11:29:35.794Z,14.00
2018-09-28T11:32:38.885Z,14.10
2018-09-28T11:35:42.009Z,14.10
2018-09-28T11:38:45.147Z,14.10
2018-09-28T11:41:48.506Z,14.00
2018-09-28T11:44:51.646Z,13.90
2018-09-28T11:47:54.802Z,14.00
2018-09-28T11:50:57.913Z,14.30
2018-09-28T11:54:01.078Z,14.50
2018-09-28T11:57:04.205Z,14.90
2018-09-28T12:00:07.405Z,14.90
2018-09-28T12:03:10.509Z,14.80
2018-09-28T12:06:13.686Z,14.70
2018-09-28T12:09:16.785Z,14.70
2018-09-28T12:12:19.964Z,14.70
2018-09-28T12:15:23.093Z,14.80
2018-09-28T12:18:26.286Z,14.70
2018-09-28T12:21:29.366Z,14.60
2018-09-28T12:24:32.518Z,14.30
2018-09-28T12:27:35.688Z,14.10
2018-09-28T12:30:38.821Z,14.20
2018-09-28T12:33:41.923Z,14.10
2018-09-28T12:36:45.038Z,14.10
2018-09-28T12:39:48.285Z,14.10
2018-09-28T12:42:51.327Z,14.10
2018-09-28T12:45:54.439Z,14.10
2018-09-28T12:48:57.590Z,14.00
2018-09-28T12:52:00.737Z,13.90
2018-09-28T12:55:03.842Z,13.90
2018-09-28T12:58:07.098Z,14.10
2018-09-28T13:01:10.378Z,14.20
2018-09-28T13:04:18.210Z,14.30
2018-09-28T13:07:21.338Z,14.40
2018-09-28T13:10:24.426Z,14.50
2018-09-28T13:13:27.558Z,14.60
2018-09-28T13:16:30.661Z,14.60
2018-09-28T13:19:33.802Z,14.50
2018-09-28T13:22:36.961Z,14.40
2018-09-28T13:25:40.133Z,14.50
2018-09-28T13:28:43.341Z,14.60
2018-09-28T13:31:46.518Z,14.70
2018-09-28T13:34:49.609Z,14.70
2018-09-28T13:37:52.735Z,14.70
2018-09-28T13:40:55.846Z,14.80
2018-09-28T13:43:58.989Z,14.80
2018-09-28T13:47:02.106Z,14.50
2018-09-28T13:50:05.476Z,14.40
2018-09-28T13:53:08.578Z,14.30
2018-09-28T13:56:11.755Z,14.40
2018-09-28T13:59:14.861Z,14.40
2018-09-28T14:02:18.096Z,14.40
2018-09-28T14:05:21.283Z,14.50
2018-09-28T14:08:24.447Z,14.60
2018-09-28T14:11:27.558Z,14.50
2018-09-28T14:14:30.703Z,14.50
2018-09-28T14:17:33.835Z,14.40
2018-09-28T14:20:36.998Z,14.30
2018-09-28T14:23:40.115Z,14.20
2018-09-28T14:26:43.307Z,14.20
2018-09-28T14:29:46.385Z,14.20
2018-09-28T14:32:49.568Z,14.00
2018-09-28T14:35:52.702Z,13.90
2018-09-28T14:38:55.806Z,13.80
2018-09-28T14:41:59.186Z,13.70
2018-09-28T14:45:02.242Z,13.80
2018-09-28T14:48:05.407Z,13.80
2018-09-28T14:51:08.506Z,13.70
2018-09-28T14:54:11.710Z,13.70
2018-09-28T14:57:14.865Z,13.60
2018-09-28T15:00:19.046Z,13.50
2018-09-28T15:03:22.161Z,13.50
2018-09-28T15:06:29.323Z,13.50
2018-09-28T15:09:32.451Z,13.50
2018-09-28T15:12:35.591Z,13.50
2018-09-28T15:15:38.773Z,13.50
2018-09-28T15:18:41.963Z,13.50
2018-09-28T15:21:45.172Z,13.40
2018-09-28T15:24:48.290Z,13.50
2018-09-28T15:27:51.415Z,13.50
2018-09-28T15:30:54.524Z,13.40
2018-09-28T15:33:57.661Z,13.40
2018-09-28T15:37:00.802Z,13.30
2018-09-28T15:40:04.118Z,13.30
2018-09-28T15:43:07.550Z,13.30
2018-09-28T15:46:10.671Z,13.30
2018-09-28T15:49:13.801Z,13.30
2018-09-28T15:52:16.938Z,13.30
2018-09-28T15:55:20.091Z,13.40
2018-09-28T15:58:23.238Z,13.50
2018-09-28T16:01:26.365Z,13.50
2018-09-28T16:04:29.477Z,13.50
2018-09-28T16:07:32.607Z,13.40
2018-09-28T16:10:35.733Z,13.40
2018-09-28T16:13:38.868Z,13.30
2018-09-28T16:16:41.992Z,13.30
2018-09-28T16:19:45.138Z,13.20
2018-09-28T16:22:48.247Z,13.10
2018-09-28T16:25:54.761Z,13.10
2018-09-28T16:28:57.874Z,13.00
2018-09-28T16:32:02.126Z,13.00
2018-09-28T16:35:05.550Z,12.90
2018-09-28T16:38:08.677Z,12.90
2018-09-28T16:41:11.842Z,12.90
2018-09-28T16:44:14.986Z,12.80
2018-09-28T16:47:18.123Z,12.60
2018-09-28T16:50:21.246Z,12.50
2018-09-28T16:53:24.336Z,12.40
2018-09-28T16:56:27.523Z,12.30
2018-09-28T16:59:30.631Z,12.20
2018-09-28T17:02:33.781Z,12.10
2018-09-28T17:05:36.934Z,12.00
2018-09-28T17:08:40.072Z,12.00
2018-09-28T17:11:43.198Z,11.90
2018-09-28T17:14:46.323Z,11.90
2018-09-28T17:17:49.452Z,11.80
2018-09-28T17:20:52.590Z,11.60
2018-09-28T17:23:55.824Z,11.50
2018-09-28T17:26:58.936Z,11.50
2018-09-28T17:30:02.046Z,11.40
2018-09-28T17:33:05.174Z,11.30
2018-09-28T17:36:08.321Z,11.20
2018-09-28T17:39:12.505Z,11.20
2018-09-28T17:42:15.654Z,11.10
2018-09-28T17:45:18.746Z,11.10
2018-09-28T17:48:21.874Z,11.10
2018-09-28T17:51:24.996Z,11.00
2018-09-28T17:54:28.134Z,10.90
2018-09-28T17:57:31.260Z,10.90
2018-09-28T18:00:34.398Z,10.80
2018-09-28T18:03:37.514Z,10.70
2018-09-28T18:06:40.613Z,10.70
2018-09-28T18:09:43.737Z,10.60
2018-09-28T18:12:46.864Z,10.50
2018-09-28T18:15:50.373Z,10.50
2018-09-28T18:18:53.489Z,10.50
2018-09-28T18:21:56.798Z,10.40
2018-09-28T18:24:59.897Z,10.40
2018-09-28T18:28:03.056Z,10.30
2018-09-28T18:31:07.788Z,10.30
2018-09-28T18:34:12.276Z,10.30
2018-09-28T18:37:16.894Z,10.20
2018-09-28T18:40:20.429Z,10.20
2018-09-28T18:43:24.087Z,10.10
2018-09-28T18:46:27.381Z,10.00
2018-09-28T18:49:31.371Z,10.00
2018-09-28T18:52:36.020Z,10.00
2018-09-28T18:55:39.193Z,9.90
2018-09-28T18:58:42.356Z,9.90
2018-09-28T19:01:45.487Z,9.80
2018-09-28T19:04:48.633Z,9.80
2018-09-28T19:07:51.846Z,9.80
2018-09-28T19:10:55.034Z,9.70
2018-09-28T19:13:58.574Z,9.70
2018-09-28T19:17:03.143Z,9.70
2018-09-28T19:20:07.149Z,9.70
2018-09-28T19:23:11.718Z,9.70
2018-09-28T19:26:15.300Z,9.60
2018-09-28T19:29:18.426Z,9.60
2018-09-28T19:32:29.286Z,9.50
2018-09-28T19:35:32.454Z,9.40
2018-09-28T19:38:35.599Z,9.50
2018-09-28T19:41:39.603Z,9.40
2018-09-28T19:44:42.729Z,9.40
2018-09-28T19:47:45.919Z,9.40
2018-09-28T19:50:49.166Z,9.40
2018-09-28T19:53:58.967Z,9.40
2018-09-28T19:57:02.895Z,9.40
2018-09-28T20:00:06.734Z,9.30
2018-09-28T20:03:12.629Z,9.30
2018-09-28T20:06:19.845Z,9.30
2018-09-28T20:09:23.127Z,9.30
2018-09-28T20:12:26.297Z,9.20
2018-09-28T20:15:29.412Z,9.20
2018-09-28T20:18:32.557Z,9.20
2018-09-28T20:21:35.673Z,9.10
2018-09-28T20:24:38.838Z,9.10
2018-09-28T20:27:41.962Z,9.00
2018-09-28T20:30:45.080Z,9.00
2018-09-28T20:33:48.167Z,8.90
2018-09-28T20:36:51.306Z,8.90
2018-09-28T20:39:54.409Z,8.80
2018-09-28T20:42:57.534Z,8.80
2018-09-28T20:46:00.631Z,8.70
2018-09-28T20:49:03.830Z,8.70
2018-09-28T20:52:07.098Z,8.60
2018-09-28T20:55:10.218Z,8.60
2018-09-28T20:58:13.375Z,8.60
2018-09-28T21:01:16.506Z,8.50
2018-09-28T21:04:19.646Z,8.50
2018-09-28T21:07:22.777Z,8.50
2018-09-28T21:10:25.889Z,8.50
2018-09-28T21:13:29.075Z,8.50
2018-09-28T21:16:32.127Z,8.50
2018-09-28T21:19:35.246Z,8.50
2018-09-28T21:25:48.012Z,8.40
2018-09-28T21:28:51.158Z,8.30
2018-09-28T21:31:54.254Z,8.30
2018-09-28T21:34:57.398Z,8.20
2018-09-28T21:38:00.722Z,8.20
2018-09-28T21:41:03.821Z,8.20
2018-09-28T21:44:07.503Z,8.20
2018-09-28T21:47:10.645Z,8.10
2018-09-28T21:50:13.791Z,8.20
2018-09-28T21:53:16.961Z,8.10
2018-09-28T21:56:20.301Z,8.10
2018-09-28T21:59:23.445Z,8.10
2018-09-28T22:02:35.050Z,8.00
2018-09-28T22:05:38.178Z,8.00
2018-09-28T22:08:41.270Z,8.00
2018-09-28T22:11:44.430Z,8.00
2018-09-28T22:14:47.596Z,7.90
2018-09-28T22:17:50.714Z,7.80
2018-09-28T22:20:53.854Z,7.80
2018-09-28T22:23:56.954Z,7.80
2018-09-28T22:27:00.096Z,7.70
2018-09-28T22:30:03.194Z,7.70
2018-09-28T22:33:06.333Z,7.70
2018-09-28T22:36:09.429Z,7.70
2018-09-28T22:39:12.758Z,7.60
2018-09-28T22:42:15.885Z,7.50
2018-09-28T22:45:19.039Z,7.50
2018-09-28T22:48:22.190Z,7.50
2018-09-28T22:51:25.294Z,7.50
2018-09-28T22:54:28.406Z,7.50
2018-09-28T22:57:31.748Z,7.50
2018-09-28T23:00:34.853Z,7.40
2018-09-28T23:03:37.978Z,7.40
2018-09-28T23:06:41.094Z,7.40
2018-09-28T23:09:44.210Z,7.40
2018-09-28T23:12:47.426Z,7.40
2018-09-28T23:15:50.554Z,7.30
2018-09-28T23:18:53.650Z,7.30
2018-09-28T23:21:56.825Z,7.30
2018-09-28T23:24:59.909Z,7.20
2018-09-28T23:28:03.045Z,7.20
2018-09-28T23:31:06.146Z,7.10
2018-09-28T23:34:09.283Z,7.10
2018-09-28T23:37:12.395Z,7.10
2018-09-28T23:40:15.518Z,7.10
2018-09-28T23:43:18.797Z,7.00
2018-09-28T23:46:21.924Z,7.00
2018-09-28T23:49:25.019Z,7.00
2018-09-28T23:52:28.190Z,6.90
2018-09-28T23:55:31.286Z,6.90
2018-09-28T23:58:34.472Z,6.90
